Accueil
METAR-TAF:

METAR-TAF

Aéroports :

Moroni, Comores

Aéroport international Prince Saïd Ibrahim

latitude: 11-32S, longitude: 043-16E, altitude: 29 m

Observation

Le bulletin a été fait il y a 7 heures et 6 minutes, à 20:00 UTC
Vent 6 kt de est
Température 25°C
Humidité 79%
Pression 1014 hPa
Visibilité 10 km ou plus
Quelques nuages à une hauteur de 2000 ft

METAR: FMCH 232000Z 09006KT 9999 FEW020 25/21 Q1014 NOSIG

Heure: 06:06 (03:06 UTC)

Prévision

Le bulletin a été fait il y a 10 heures et 6 minutes, à 17:00 UTC
Prévision valable du 23 à 18 UTC au 24 à 24 UTC
Vent 3 kt de est/sud-est
Visibilité 10 km ou plus
Quelques nuages à une hauteur de 2000 ft
Evoluant progressivement
du 24 à 05 UTC au 24 à 07 UTC
Vent 8 kt de sud-ouest
Evoluant progressivement
du 24 à 15 UTC au 24 à 17 UTC
Vent 3 kt de est/sud-est

TAF: FMCH 231700Z 2318/2424 12003KT 9999 FEW020 BECMG 2405/2407 22008KT BECMG 2415/2417 11003KT

Observations et prévisions météorologiques de plus de 4000 aéroports (messages METAR et TAF).

Les stations disponibles sont représentées par des disques jaunes et rouges sur la carte.

Passer la souris dessus pour voir le nom de la station.

Cliquer dessus pour voir les observations et prévisions météorologiques.

Pour changer de carte: cliquez sur les boutons verts avec une croix noire pour zoomer, sur le bouton vert avec un tiret pour effectuer un zoom arrière, ou sur les flèches vertes pour les cartes adjacentes.


METAR-TAF: